createdAt,value
2018-02-08T00:01:00.421Z,68.20
2018-02-08T00:03:27.983Z,68.20
2018-02-08T00:05:55.530Z,68.20
2018-02-08T00:08:23.871Z,67.90
2018-02-08T00:10:51.473Z,67.90
2018-02-08T00:13:19.068Z,67.70
2018-02-08T00:15:46.774Z,68.10
2018-02-08T00:18:14.361Z,68.20
2018-02-08T00:20:41.876Z,68.20
2018-02-08T00:23:09.530Z,69.00
2018-02-08T00:25:37.089Z,68.50
2018-02-08T00:28:04.698Z,68.50
2018-02-08T00:30:32.275Z,68.90
2018-02-08T00:32:59.871Z,69.40
2018-02-08T00:35:28.198Z,69.80
2018-02-08T00:37:55.773Z,69.80
2018-02-08T00:40:24.130Z,70.00
2018-02-08T00:42:51.717Z,70.00
2018-02-08T00:45:19.320Z,70.10
2018-02-08T00:47:46.943Z,70.10
2018-02-08T00:50:14.570Z,70.20
2018-02-08T00:52:42.163Z,70.20
2018-02-08T00:55:09.686Z,70.30
2018-02-08T00:57:38.081Z,70.20
2018-02-08T01:00:05.659Z,70.10
2018-02-08T01:02:33.212Z,70.00
2018-02-08T01:05:00.736Z,69.90
2018-02-08T01:07:28.318Z,69.50
2018-02-08T01:09:56.621Z,69.80
2018-02-08T01:12:25.132Z,69.70
2018-02-08T01:14:52.717Z,69.80
2018-02-08T01:17:20.245Z,69.90
2018-02-08T01:19:48.251Z,69.60
2018-02-08T01:22:15.763Z,69.40
2018-02-08T01:24:44.376Z,69.00
2018-02-08T01:27:11.913Z,69.00
2018-02-08T01:29:40.284Z,69.00
2018-02-08T01:32:09.343Z,68.90
2018-02-08T01:34:37.172Z,68.90
2018-02-08T01:37:05.045Z,68.50
2018-02-08T01:39:32.753Z,68.00
2018-02-08T01:42:00.272Z,67.70
2018-02-08T01:44:27.853Z,67.50
2018-02-08T01:46:55.381Z,67.70
2018-02-08T01:49:35.648Z,68.30
2018-02-08T01:52:03.370Z,68.30
2018-02-08T01:54:30.929Z,68.40
2018-02-08T01:56:58.435Z,68.50
2018-02-08T01:59:26.727Z,68.20
2018-02-08T02:01:55.009Z,67.80
2018-02-08T02:04:23.278Z,67.70
2018-02-08T02:06:51.590Z,68.00
2018-02-08T02:09:19.150Z,67.90
2018-02-08T02:11:46.679Z,67.90
2018-02-08T02:14:14.991Z,67.70
2018-02-08T02:16:44.702Z,68.30
2018-02-08T02:19:12.237Z,67.60
2018-02-08T02:21:39.750Z,67.60
2018-02-08T02:24:07.258Z,67.80
2018-02-08T02:26:35.504Z,67.80
2018-02-08T02:29:03.024Z,67.60
2018-02-08T02:31:31.284Z,66.90
2018-02-08T02:33:58.813Z,66.90
2018-02-08T02:36:26.328Z,66.70
2018-02-08T02:38:54.605Z,66.20
2018-02-08T02:41:22.890Z,65.90
2018-02-08T02:43:51.174Z,65.80
2018-02-08T02:46:19.433Z,65.70
2018-02-08T02:48:47.815Z,66.20
2018-02-08T02:51:16.082Z,65.20
2018-02-08T02:53:43.581Z,65.20
2018-02-08T02:56:11.879Z,65.20
2018-02-08T02:58:39.391Z,65.20
2018-02-08T03:01:06.910Z,65.10
2018-02-08T03:03:34.461Z,64.90
2018-02-08T03:06:02.757Z,64.90
2018-02-08T03:08:30.284Z,64.90
2018-02-08T03:10:58.574Z,64.40
2018-02-08T03:13:26.893Z,64.50
2018-02-08T03:15:54.416Z,64.50
2018-02-08T03:18:22.705Z,64.60
2018-02-08T03:20:51.017Z,64.80
2018-02-08T03:23:18.569Z,64.70
2018-02-08T03:25:46.087Z,65.10
2018-02-08T03:28:13.604Z,64.60
2018-02-08T03:30:43.700Z,64.30
2018-02-08T03:33:11.978Z,63.90
2018-02-08T03:35:40.251Z,63.90
2018-02-08T03:38:08.534Z,64.30
2018-02-08T03:40:36.094Z,64.30
2018-02-08T03:43:04.372Z,64.60
2018-02-08T03:45:31.884Z,64.50
2018-02-08T03:47:59.388Z,64.80
2018-02-08T03:50:26.946Z,64.40
2018-02-08T03:52:55.223Z,64.50
2018-02-08T03:55:22.765Z,64.60
2018-02-08T03:57:50.256Z,64.80
2018-02-08T04:00:19.238Z,64.70
2018-02-08T04:02:46.753Z,64.90
2018-02-08T04:05:14.283Z,64.90
2018-02-08T04:07:41.795Z,65.00
2018-02-08T04:10:09.300Z,64.90
2018-02-08T04:12:36.788Z,64.90
2018-02-08T04:15:04.324Z,65.10
2018-02-08T04:17:31.823Z,65.20
2018-02-08T04:20:00.121Z,65.20
2018-02-08T04:22:27.691Z,65.20
2018-02-08T04:24:55.211Z,65.00
2018-02-08T04:27:22.705Z,65.10
2018-02-08T04:29:51.009Z,65.30
2018-02-08T04:32:18.505Z,65.20
2018-02-08T04:34:46.059Z,65.50
2018-02-08T04:37:13.621Z,65.50
2018-02-08T04:39:52.996Z,65.40
2018-02-08T04:42:33.750Z,65.60
2018-02-08T04:45:13.278Z,65.60
2018-02-08T04:48:04.437Z,65.40
2018-02-08T04:50:31.975Z,65.20
2018-02-08T04:53:00.252Z,64.90
2018-02-08T04:55:28.588Z,64.80
2018-02-08T04:57:56.425Z,64.80
2018-02-08T05:00:23.933Z,64.60
2018-02-08T05:02:54.425Z,64.60
2018-02-08T05:05:22.023Z,64.60
2018-02-08T05:07:49.879Z,64.70
2018-02-08T05:10:17.405Z,64.70
2018-02-08T05:12:45.679Z,64.70
2018-02-08T05:15:13.951Z,64.80
2018-02-08T05:17:42.227Z,65.20
2018-02-08T05:20:09.733Z,64.80
2018-02-08T05:22:37.254Z,64.80
2018-02-08T05:25:04.770Z,64.60
2018-02-08T05:27:32.301Z,64.60
2018-02-08T05:30:00.577Z,64.80
2018-02-08T05:32:28.124Z,64.80
2018-02-08T05:34:55.691Z,64.80
2018-02-08T05:37:25.181Z,65.00
2018-02-08T05:39:52.710Z,65.00
2018-02-08T05:42:20.236Z,64.90
2018-02-08T05:44:48.497Z,65.20
2018-02-08T05:47:16.004Z,65.10
2018-02-08T05:49:43.534Z,65.60
2018-02-08T05:52:11.054Z,65.50
2018-02-08T05:54:38.545Z,65.40
2018-02-08T05:57:06.050Z,65.50
2018-02-08T05:59:33.647Z,65.40
2018-02-08T06:02:01.186Z,65.70
2018-02-08T06:04:28.678Z,65.70
2018-02-08T06:06:56.285Z,65.80
2018-02-08T06:09:24.587Z,66.50
2018-02-08T06:11:52.108Z,66.50
2018-02-08T06:14:19.622Z,66.60
2018-02-08T06:16:47.141Z,66.80
2018-02-08T06:19:14.629Z,66.80
2018-02-08T06:21:42.933Z,66.70
2018-02-08T06:24:10.502Z,66.70
2018-02-08T06:26:38.060Z,66.80
2018-02-08T06:29:05.620Z,66.90
2018-02-08T06:31:33.118Z,67.10
2018-02-08T06:34:00.795Z,67.70
2018-02-08T06:36:28.307Z,67.00
2018-02-08T06:38:55.831Z,66.80
2018-02-08T06:41:23.344Z,66.70
2018-02-08T06:43:50.834Z,67.00
2018-02-08T06:46:18.356Z,67.00
2018-02-08T06:48:46.632Z,66.90
2018-02-08T06:51:14.918Z,67.10
2018-02-08T06:53:43.197Z,67.10
2018-02-08T06:56:11.477Z,67.10
2018-02-08T06:58:39.750Z,66.80
2018-02-08T07:01:08.016Z,66.60
2018-02-08T07:03:36.326Z,67.30
2018-02-08T07:06:04.581Z,66.60
2018-02-08T07:08:32.097Z,66.50
2018-02-08T07:10:59.590Z,66.70
2018-02-08T07:13:27.121Z,66.70
2018-02-08T07:15:54.634Z,66.60
2018-02-08T07:18:22.910Z,66.40
2018-02-08T07:20:50.432Z,66.70
2018-02-08T07:23:19.079Z,66.80
2018-02-08T07:25:46.719Z,66.60
2018-02-08T07:28:14.330Z,66.50
2018-02-08T07:30:41.833Z,67.10
2018-02-08T07:33:09.347Z,66.60
2018-02-08T07:35:36.890Z,66.30
2018-02-08T07:38:04.378Z,65.90
2018-02-08T07:40:31.910Z,65.50
2018-02-08T07:42:59.472Z,65.30
2018-02-08T07:45:26.985Z,64.90
2018-02-08T07:47:54.487Z,64.50
2018-02-08T07:50:22.006Z,64.30
2018-02-08T07:52:49.553Z,64.10
2018-02-08T07:55:17.562Z,63.60
2018-02-08T07:57:45.102Z,63.30
2018-02-08T08:00:12.653Z,63.00
2018-02-08T08:02:40.951Z,62.50
2018-02-08T08:05:08.480Z,62.50
2018-02-08T08:07:35.998Z,61.90
2018-02-08T08:10:03.509Z,62.10
2018-02-08T08:12:31.790Z,61.70
2018-02-08T08:15:00.061Z,61.20
2018-02-08T08:17:28.417Z,61.00
2018-02-08T08:19:55.987Z,61.00
2018-02-08T08:22:23.758Z,60.70
2018-02-08T08:24:51.942Z,60.50
2018-02-08T08:27:20.446Z,59.90
2018-02-08T08:29:48.792Z,59.80
2018-02-08T08:32:16.757Z,59.80
2018-02-08T08:34:44.899Z,59.70
2018-02-08T08:37:12.483Z,59.90
2018-02-08T08:39:40.020Z,59.90
2018-02-08T08:42:08.361Z,59.00
2018-02-08T08:44:35.935Z,59.00
2018-02-08T08:47:03.456Z,58.60
2018-02-08T08:49:31.006Z,58.30
2018-02-08T08:51:59.356Z,57.80
2018-02-08T08:54:26.880Z,57.80
2018-02-08T08:56:54.476Z,57.70
2018-02-08T08:59:22.014Z,57.30
2018-02-08T09:01:49.520Z,57.50
2018-02-08T09:04:17.806Z,57.80
2018-02-08T09:06:46.092Z,57.90
2018-02-08T09:09:14.523Z,57.00
2018-02-08T09:11:42.045Z,57.00
2018-02-08T09:14:10.358Z,56.10
2018-02-08T09:16:37.878Z,56.00
2018-02-08T09:19:05.409Z,55.70
2018-02-08T09:21:32.940Z,56.10
2018-02-08T09:24:00.470Z,56.50
2018-02-08T09:26:29.494Z,55.20
2018-02-08T09:28:57.012Z,55.20
2018-02-08T09:31:25.453Z,55.00
2018-02-08T09:33:53.007Z,55.10
2018-02-08T09:36:20.870Z,55.00
2018-02-08T09:38:49.153Z,54.60
2018-02-08T09:41:16.654Z,54.60
2018-02-08T09:43:44.169Z,53.70
2018-02-08T09:46:12.541Z,53.20
2018-02-08T09:48:40.971Z,53.20
2018-02-08T09:51:08.481Z,52.70
2018-02-08T09:53:36.816Z,53.20
2018-02-08T09:56:04.346Z,53.00
2018-02-08T09:58:33.381Z,52.40
2018-02-08T10:01:01.017Z,52.40
2018-02-08T10:03:29.357Z,51.70
2018-02-08T10:05:56.864Z,51.70
2018-02-08T10:08:25.143Z,51.10
2018-02-08T10:10:52.690Z,51.10
2018-02-08T10:13:20.960Z,49.60
2018-02-08T10:15:48.489Z,49.40
2018-02-08T10:18:16.034Z,49.70
2018-02-08T10:20:43.559Z,49.60
2018-02-08T10:23:11.123Z,49.50
2018-02-08T10:25:39.550Z,48.70
2018-02-08T10:28:07.078Z,48.70
2018-02-08T10:30:36.034Z,47.70
2018-02-08T10:33:03.570Z,47.10
2018-02-08T10:35:31.170Z,47.40
2018-02-08T10:37:58.696Z,47.50
2018-02-08T10:40:26.185Z,47.60
2018-02-08T10:42:53.684Z,47.00
2018-02-08T10:45:22.045Z,46.50
2018-02-08T10:47:49.527Z,46.50
2018-02-08T10:50:17.044Z,46.20
2018-02-08T10:52:48.218Z,46.40
2018-02-08T10:55:20.997Z,46.20
2018-02-08T10:57:51.309Z,46.10
2018-02-08T11:00:18.862Z,46.10
2018-02-08T11:02:46.380Z,45.70
2018-02-08T11:05:14.292Z,45.40
2018-02-08T11:07:41.813Z,45.60
2018-02-08T11:10:09.345Z,45.60
2018-02-08T11:12:36.875Z,45.70
2018-02-08T11:15:04.392Z,45.80
2018-02-08T11:17:31.905Z,45.80
2018-02-08T11:19:59.455Z,45.40
2018-02-08T11:22:26.984Z,45.30
2018-02-08T11:24:55.256Z,44.70
2018-02-08T11:27:22.775Z,44.20
2018-02-08T11:29:50.305Z,43.80
2018-02-08T11:32:18.593Z,43.20
2018-02-08T11:34:46.887Z,43.30
2018-02-08T11:37:16.085Z,43.10
2018-02-08T11:39:44.380Z,43.10
2018-02-08T11:42:11.909Z,43.10
2018-02-08T11:44:39.456Z,43.20
2018-02-08T11:47:06.980Z,43.60
2018-02-08T11:49:35.079Z,43.30
2018-02-08T11:52:02.644Z,43.20
2018-02-08T11:54:30.202Z,42.60
2018-02-08T11:56:57.736Z,41.60
2018-02-08T11:59:25.281Z,41.30
2018-02-08T12:01:53.576Z,41.20
2018-02-08T12:04:22.184Z,41.20
2018-02-08T12:06:49.707Z,41.20
2018-02-08T12:09:18.219Z,42.10
2018-02-08T12:11:45.741Z,42.00
2018-02-08T12:14:13.272Z,41.70
2018-02-08T12:16:40.800Z,41.70
2018-02-08T12:19:09.275Z,41.70
2018-02-08T12:21:37.588Z,42.20
2018-02-08T12:24:05.113Z,42.10
2018-02-08T12:26:32.605Z,42.30
2018-02-08T12:29:00.167Z,41.80
2018-02-08T12:31:27.727Z,41.90
2018-02-08T12:33:58.051Z,42.00
2018-02-08T12:36:25.581Z,41.30
2018-02-08T12:38:53.106Z,41.60
2018-02-08T12:41:20.701Z,41.70
2018-02-08T12:43:49.005Z,41.50
2018-02-08T12:46:17.316Z,41.80
2018-02-08T12:48:44.890Z,41.70
2018-02-08T12:51:12.578Z,41.90
2018-02-08T12:53:40.090Z,41.90
2018-02-08T12:56:08.370Z,42.10
2018-02-08T12:58:36.648Z,42.20
2018-02-08T13:01:04.961Z,42.30
2018-02-08T13:03:32.724Z,42.30
2018-02-08T13:06:02.619Z,42.10
2018-02-08T13:08:30.226Z,42.00
2018-02-08T13:10:57.759Z,41.80
2018-02-08T13:13:26.058Z,41.10
2018-02-08T13:15:53.668Z,41.10
2018-02-08T13:18:21.177Z,41.10
2018-02-08T13:20:48.713Z,41.00
2018-02-08T13:23:16.978Z,41.80
2018-02-08T13:25:44.510Z,41.80
2018-02-08T13:28:12.015Z,41.40
2018-02-08T13:30:41.062Z,41.10
2018-02-08T13:33:08.597Z,41.10
2018-02-08T13:35:36.922Z,41.50
2018-02-08T13:38:04.504Z,41.50
2018-02-08T13:40:37.180Z,41.70
2018-02-08T13:43:04.762Z,41.50
2018-02-08T13:45:32.693Z,41.70
2018-02-08T13:48:05.825Z,42.10
2018-02-08T13:50:35.158Z,42.10
2018-02-08T13:53:09.093Z,42.40
2018-02-08T13:58:38.933Z,42.40
2018-02-08T14:01:09.025Z,42.80
2018-02-08T14:03:36.571Z,42.60
2018-02-08T14:06:07.247Z,42.60
2018-02-08T14:08:34.781Z,42.60
2018-02-08T14:11:03.070Z,43.00
2018-02-08T14:13:30.588Z,43.00
2018-02-08T14:15:58.169Z,44.60
2018-02-08T14:18:26.468Z,43.60
2018-02-08T14:20:54.843Z,43.30
2018-02-08T14:23:23.187Z,43.90
2018-02-08T14:25:50.716Z,43.90
2018-02-08T14:28:18.245Z,44.50
2018-02-08T14:30:45.816Z,44.60
2018-02-08T14:33:14.117Z,45.10
2018-02-08T14:35:41.675Z,45.00
2018-02-08T14:38:09.270Z,45.10
2018-02-08T14:40:36.776Z,45.10
2018-02-08T14:43:05.138Z,45.10
2018-02-08T14:45:32.661Z,45.10
2018-02-08T14:48:00.170Z,45.50
2018-02-08T14:50:27.691Z,46.00
2018-02-08T14:52:55.252Z,45.40
2018-02-08T14:55:22.759Z,45.20
2018-02-08T14:57:50.303Z,45.40
2018-02-08T15:00:17.805Z,45.70
2018-02-08T15:02:45.322Z,45.90
2018-02-08T15:05:13.754Z,45.60
2018-02-08T15:07:41.263Z,46.40
2018-02-08T15:10:08.802Z,46.50
2018-02-08T15:12:37.193Z,46.70
2018-02-08T15:15:04.705Z,46.80
2018-02-08T15:17:33.586Z,46.40
2018-02-08T15:20:01.107Z,46.60
2018-02-08T15:22:29.408Z,46.70
2018-02-08T15:24:57.688Z,46.60
2018-02-08T15:27:25.191Z,46.50
2018-02-08T15:29:54.248Z,47.10
2018-02-08T15:32:21.732Z,47.00
2018-02-08T15:34:49.273Z,47.40
2018-02-08T15:37:16.767Z,47.50
2018-02-08T15:39:44.326Z,47.50
2018-02-08T15:42:11.845Z,47.20
2018-02-08T15:44:40.124Z,47.10
2018-02-08T15:47:08.401Z,47.50
2018-02-08T15:49:36.666Z,47.70
2018-02-08T15:52:04.185Z,47.70
2018-02-08T15:54:31.701Z,47.70
2018-02-08T15:56:59.221Z,47.90
2018-02-08T15:59:26.746Z,48.20
2018-02-08T16:01:55.057Z,48.30
2018-02-08T16:04:22.542Z,48.30
2018-02-08T16:06:50.103Z,48.50
2018-02-08T16:09:17.601Z,48.70
2018-02-08T16:11:45.105Z,48.90
2018-02-08T16:14:12.621Z,48.90
2018-02-08T16:16:41.668Z,49.40
2018-02-08T16:19:09.205Z,49.40
2018-02-08T16:21:37.548Z,49.60
2018-02-08T16:24:05.108Z,49.60
2018-02-08T16:26:32.633Z,49.70
2018-02-08T16:29:00.163Z,50.00
2018-02-08T16:31:28.485Z,50.50
2018-02-08T16:33:56.022Z,50.40
2018-02-08T16:36:24.300Z,50.20
2018-02-08T16:38:52.680Z,50.20
2018-02-08T16:41:20.256Z,50.20
2018-02-08T16:43:48.546Z,50.40
2018-02-08T16:46:16.046Z,50.40
2018-02-08T16:48:43.567Z,50.50
2018-02-08T16:51:11.094Z,50.60
2018-02-08T16:53:39.355Z,51.40
2018-02-08T16:56:06.961Z,50.80
2018-02-08T16:58:35.252Z,51.00
2018-02-08T17:01:03.881Z,51.00
2018-02-08T17:03:31.382Z,51.00
2018-02-08T17:05:59.670Z,51.10
2018-02-08T17:08:27.940Z,51.10
2018-02-08T17:10:55.488Z,51.10
2018-02-08T17:13:23.021Z,51.20
2018-02-08T17:15:50.545Z,51.90
2018-02-08T17:18:18.829Z,52.20
2018-02-08T17:20:47.105Z,52.40
2018-02-08T17:23:15.370Z,52.50
2018-02-08T17:25:42.892Z,52.50
2018-02-08T17:28:10.428Z,52.60
2018-02-08T17:30:37.962Z,52.70
2018-02-08T17:33:06.256Z,53.20
2018-02-08T17:35:34.550Z,53.40
2018-02-08T17:38:02.806Z,53.30
2018-02-08T17:40:31.095Z,53.50
2018-02-08T17:42:59.439Z,53.50
2018-02-08T17:45:26.949Z,53.50
2018-02-08T17:47:55.282Z,53.10
2018-02-08T17:50:23.285Z,53.20
2018-02-08T17:52:50.812Z,53.10
2018-02-08T17:55:18.316Z,53.20
2018-02-08T17:57:45.835Z,53.00
2018-02-08T18:00:13.357Z,53.20
2018-02-08T18:02:42.669Z,53.20
2018-02-08T18:05:10.220Z,53.10
2018-02-08T18:07:38.514Z,53.70
2018-02-08T18:10:06.790Z,53.50
2018-02-08T18:12:35.090Z,53.20
2018-02-08T18:15:03.395Z,53.70
2018-02-08T18:17:30.944Z,53.70
2018-02-08T18:19:58.481Z,53.90
2018-02-08T18:22:26.811Z,54.20
2018-02-08T18:24:54.357Z,54.20
2018-02-08T18:27:22.117Z,54.40
2018-02-08T18:29:49.739Z,54.70
2018-02-08T18:32:17.300Z,54.80
2018-02-08T18:34:45.049Z,54.80
2018-02-08T18:37:12.589Z,55.10
2018-02-08T18:39:40.313Z,55.00
2018-02-08T18:42:07.818Z,55.00
2018-02-08T18:44:35.350Z,55.70
2018-02-08T18:47:03.636Z,54.20
2018-02-08T18:49:31.159Z,54.20
2018-02-08T18:51:58.694Z,54.40
2018-02-08T18:54:26.309Z,54.40
2018-02-08T18:56:53.963Z,54.40
2018-02-08T18:59:22.534Z,54.10
2018-02-08T19:01:50.065Z,54.20
2018-02-08T19:04:17.752Z,54.30
2018-02-08T19:06:45.279Z,54.50
2018-02-08T19:09:14.614Z,54.80
2018-02-08T19:11:42.293Z,54.70
2018-02-08T19:14:09.881Z,55.00
2018-02-08T19:16:37.411Z,55.00
2018-02-08T19:19:05.028Z,55.10
2018-02-08T19:21:33.429Z,55.60
2018-02-08T19:24:01.121Z,55.50
2018-02-08T19:26:28.680Z,55.70
2018-02-08T19:28:56.238Z,55.70
2018-02-08T19:31:24.493Z,55.80
2018-02-08T19:33:53.046Z,56.00
2018-02-08T19:36:20.591Z,55.90
2018-02-08T19:38:53.155Z,56.10
2018-02-08T19:41:20.725Z,56.20
2018-02-08T19:43:49.121Z,56.30
2018-02-08T19:46:16.665Z,56.30
2018-02-08T19:48:44.245Z,56.40
2018-02-08T19:51:11.765Z,56.40
2018-02-08T19:53:40.115Z,56.20
2018-02-08T19:56:07.720Z,56.10
2018-02-08T19:58:36.074Z,56.40
2018-02-08T20:01:03.629Z,56.30
2018-02-08T20:03:31.177Z,56.30
2018-02-08T20:05:58.716Z,56.30
2018-02-08T20:08:26.237Z,56.20
2018-02-08T20:10:54.402Z,56.40
2018-02-08T20:13:25.561Z,56.50
2018-02-08T20:15:54.029Z,56.80
2018-02-08T20:18:21.602Z,56.80
2018-02-08T20:20:50.326Z,57.00
2018-02-08T20:23:18.649Z,57.00
2018-02-08T20:25:47.200Z,56.80
2018-02-08T20:28:14.783Z,57.10
2018-02-08T20:30:42.421Z,57.20
2018-02-08T20:33:12.700Z,57.30
2018-02-08T20:35:40.956Z,57.40
2018-02-08T20:38:08.706Z,57.40
2018-02-08T20:40:36.971Z,57.40
2018-02-08T20:43:10.352Z,57.80
2018-02-08T20:45:38.948Z,58.10
2018-02-08T20:48:07.497Z,57.90
2018-02-08T20:50:35.026Z,57.80
2018-02-08T20:53:03.408Z,58.10
2018-02-08T20:55:30.981Z,58.00
2018-02-08T20:57:58.770Z,58.30
2018-02-08T21:00:26.289Z,58.40
2018-02-08T21:02:54.579Z,59.00
2018-02-08T21:05:22.921Z,58.90
2018-02-08T21:07:51.417Z,58.90
2018-02-08T21:10:18.935Z,58.90
2018-02-08T21:12:46.440Z,58.90
2018-02-08T21:15:13.952Z,58.90
2018-02-08T21:17:42.751Z,58.80
2018-02-08T21:20:10.263Z,58.90
2018-02-08T21:22:37.814Z,59.00
2018-02-08T21:25:05.324Z,59.00
2018-02-08T21:27:33.768Z,58.90
2018-02-08T21:30:01.268Z,58.90
2018-02-08T21:32:29.543Z,59.30
2018-02-08T21:34:57.872Z,59.40
2018-02-08T21:37:25.707Z,59.40
2018-02-08T21:39:53.377Z,59.50
2018-02-08T21:42:20.939Z,59.60
2018-02-08T21:44:48.523Z,59.70
2018-02-08T21:47:16.096Z,59.70
2018-02-08T21:49:43.665Z,59.90
2018-02-08T21:52:11.225Z,60.00
2018-02-08T21:54:38.766Z,60.10
2018-02-08T21:57:06.283Z,60.30
2018-02-08T21:59:33.825Z,60.40
2018-02-08T22:02:01.361Z,60.40
2018-02-08T22:04:28.899Z,60.30
2018-02-08T22:06:56.466Z,60.40
2018-02-08T22:09:24.749Z,60.70
2018-02-08T22:11:53.047Z,60.80
2018-02-08T22:14:20.548Z,60.80
2018-02-08T22:16:48.042Z,60.90
2018-02-08T22:19:16.322Z,61.20
2018-02-08T22:21:43.843Z,61.20
2018-02-08T22:24:11.346Z,61.30
2018-02-08T22:26:39.631Z,60.70
2018-02-08T22:29:07.376Z,60.70
2018-02-08T22:31:34.898Z,60.60
2018-02-08T22:34:02.438Z,60.70
2018-02-08T22:36:30.753Z,61.20
2018-02-08T22:38:58.298Z,61.20
2018-02-08T22:41:26.175Z,60.20
2018-02-08T22:43:53.757Z,60.10
2018-02-08T22:46:21.272Z,60.20
2018-02-08T22:48:48.859Z,60.40
2018-02-08T22:51:16.383Z,60.80
2018-02-08T22:53:43.915Z,60.70
2018-02-08T22:56:11.496Z,60.70
2018-02-08T22:58:39.241Z,60.80
2018-02-08T23:01:06.760Z,60.70
2018-02-08T23:03:34.268Z,60.90
2018-02-08T23:06:01.796Z,60.90
2018-02-08T23:08:31.161Z,61.00
2018-02-08T23:10:59.422Z,61.10
2018-02-08T23:13:27.007Z,61.20
2018-02-08T23:15:56.015Z,61.00
2018-02-08T23:18:24.380Z,61.60
2018-02-08T23:20:51.965Z,60.90
2018-02-08T23:23:19.554Z,61.00
2018-02-08T23:25:48.065Z,61.10
2018-02-08T23:28:16.363Z,61.20
2018-02-08T23:30:43.978Z,61.20
2018-02-08T23:33:12.262Z,61.50
2018-02-08T23:35:39.756Z,61.50
2018-02-08T23:38:07.297Z,61.50
2018-02-08T23:40:35.561Z,61.80
2018-02-08T23:43:03.229Z,61.80
2018-02-08T23:45:30.726Z,62.00
2018-02-08T23:47:59.008Z,62.30
2018-02-08T23:50:26.520Z,62.30
2018-02-08T23:52:54.040Z,62.40
2018-02-08T23:55:21.549Z,62.50
2018-02-08T23:57:49.059Z,62.90
